Terminal Aerodrome Forecast
Issued by NWS Charleston, WV

Current Version | Previous Version | Graphics & Text | Print | Product List | Glossary On
Versions: 1 2 3 4 5 6 7 8 9 10 11 12 13 14 15 16 17 18 19 20 21 22 23 24 25 26
000
FTUS41 KRLX 170552 CCA
TAFEKN
TAF COR
KEKN 170552Z 1706/1806 00000KT 1/4SM FG VV001
     FM171300 20003KT P6SM SCT200
     FM171700 23004KT P6SM SCT040
     FM172200 22004KT 3SM TSRA SCT040CB
     FM180000 20004KT P6SM VCSH BKN040=

USA.gov is the U.S. government's official web portal to all federal, state and local government web resources and services.